createdAt,value
2023-05-05T00:01:18.444Z,3.97
2023-05-05T00:04:22.715Z,5.00
2023-05-05T00:07:25.953Z,4.47
2023-05-05T00:10:30.524Z,4.27
2023-05-05T00:13:33.766Z,4.43
2023-05-05T00:16:37.018Z,4.00
2023-05-05T00:19:40.207Z,4.43
2023-05-05T00:22:43.425Z,4.40
2023-05-05T00:25:48.057Z,4.47
2023-05-05T00:28:52.170Z,4.00
2023-05-05T00:31:55.330Z,4.87
2023-05-05T00:34:58.482Z,4.50
2023-05-05T00:38:01.664Z,4.10
2023-05-05T00:41:06.351Z,4.40
2023-05-05T00:44:09.520Z,4.40
2023-05-05T00:47:13.046Z,4.33
2023-05-05T00:50:22.669Z,4.50
2023-05-05T00:53:26.722Z,4.03
2023-05-05T00:56:31.390Z,4.60
2023-05-05T00:59:35.216Z,4.00
2023-05-05T01:02:38.408Z,4.83
2023-05-05T01:05:49.978Z,5.33
2023-05-05T01:09:01.993Z,4.13
2023-05-05T01:12:12.218Z,4.33
2023-05-05T01:15:17.290Z,4.20
2023-05-05T01:18:24.812Z,4.57
2023-05-05T01:21:30.030Z,4.27
2023-05-05T01:24:47.547Z,4.20
2023-05-05T01:27:56.869Z,4.30
2023-05-05T01:31:07.861Z,4.40
2023-05-05T01:34:13.346Z,4.20
2023-05-05T01:37:19.529Z,5.17
2023-05-05T01:40:24.197Z,4.30
2023-05-05T01:43:29.516Z,4.13
2023-05-05T01:46:34.848Z,3.33
2023-05-05T01:49:40.055Z,4.50
2023-05-05T01:52:44.042Z,3.80
2023-05-05T01:55:48.271Z,4.63
2023-05-05T01:58:51.510Z,4.73
2023-05-05T02:01:56.464Z,4.00
2023-05-05T02:05:01.307Z,4.33
2023-05-05T02:08:05.511Z,5.07
2023-05-05T02:11:10.819Z,4.70
2023-05-05T02:14:14.393Z,4.03
2023-05-05T02:17:17.808Z,4.10
2023-05-05T02:20:23.407Z,5.30
2023-05-05T02:23:26.709Z,4.60
2023-05-05T02:26:31.440Z,4.60
2023-05-05T02:29:36.449Z,4.63
2023-05-05T02:32:41.634Z,4.50
2023-05-05T02:35:47.996Z,5.00
2023-05-05T02:38:54.861Z,4.40
2023-05-05T02:41:59.710Z,3.77
2023-05-05T02:45:06.167Z,4.07
2023-05-05T02:48:10.555Z,4.30
2023-05-05T02:51:15.039Z,5.23
2023-05-05T02:54:18.257Z,4.33
2023-05-05T02:57:22.498Z,4.73
2023-05-05T03:00:28.410Z,4.17
2023-05-05T03:03:36.478Z,4.77
2023-05-05T03:06:43.375Z,4.30
2023-05-05T03:09:48.567Z,4.00
2023-05-05T03:12:54.806Z,4.37
2023-05-05T03:15:58.875Z,4.60
2023-05-05T03:19:03.146Z,4.27
2023-05-05T03:22:07.829Z,5.20
2023-05-05T03:25:11.189Z,4.70
2023-05-05T03:28:15.602Z,4.53
2023-05-05T03:31:19.370Z,4.80
2023-05-05T03:34:22.585Z,4.60
2023-05-05T03:37:27.122Z,4.67
2023-05-05T03:40:43.121Z,4.97
2023-05-05T03:43:47.572Z,4.80
2023-05-05T03:46:50.708Z,4.00
2023-05-05T03:49:53.894Z,5.07
2023-05-05T03:52:58.433Z,5.67
2023-05-05T03:56:01.605Z,4.80
2023-05-05T03:59:04.768Z,5.03
2023-05-05T04:02:08.608Z,4.90
2023-05-05T04:05:11.854Z,5.47
2023-05-05T04:08:16.352Z,4.70
2023-05-05T04:11:19.529Z,4.53
2023-05-05T04:14:22.723Z,5.80
2023-05-05T04:17:25.912Z,6.27
2023-05-05T04:20:29.084Z,5.03
2023-05-05T04:23:33.617Z,4.63
2023-05-05T04:26:37.162Z,5.50
2023-05-05T04:29:40.580Z,5.07
2023-05-05T04:32:43.747Z,5.83
2023-05-05T04:35:46.969Z,6.30
2023-05-05T04:38:51.483Z,4.83
2023-05-05T04:41:54.691Z,5.03
2023-05-05T04:44:57.861Z,5.00
2023-05-05T04:48:01.678Z,6.00
2023-05-05T04:51:07.791Z,5.87
2023-05-05T04:54:12.290Z,5.83
2023-05-05T04:57:15.468Z,5.97
2023-05-05T05:00:18.931Z,5.57
2023-05-05T05:03:22.284Z,5.83
2023-05-05T05:06:25.533Z,4.80
2023-05-05T05:09:30.056Z,5.57
2023-05-05T05:12:33.373Z,4.90
2023-05-05T05:15:38.008Z,6.17
2023-05-05T05:18:41.221Z,5.03
2023-05-05T05:21:44.353Z,6.07
2023-05-05T05:24:48.836Z,6.17
2023-05-05T05:28:02.313Z,5.90
2023-05-05T05:31:12.434Z,5.67
2023-05-05T05:34:15.739Z,6.33
2023-05-05T05:37:19.122Z,6.33
2023-05-05T05:40:23.720Z,5.90
2023-05-05T05:43:27.123Z,5.87
2023-05-05T05:46:30.366Z,5.93
2023-05-05T05:49:33.598Z,6.37
2023-05-05T05:52:37.077Z,6.00
2023-05-05T05:55:41.623Z,6.80
2023-05-05T05:58:45.215Z,7.03
2023-05-05T06:01:48.405Z,7.37
2023-05-05T06:04:51.551Z,8.30
2023-05-05T06:07:54.710Z,6.60
2023-05-05T06:11:00.517Z,6.80
2023-05-05T06:14:03.811Z,6.30
2023-05-05T06:17:06.996Z,6.93
2023-05-05T06:20:10.664Z,6.40
2023-05-05T06:23:13.800Z,6.93
2023-05-05T06:26:18.330Z,4.80
2023-05-05T06:29:22.265Z,5.30
2023-05-05T06:32:25.480Z,4.60
2023-05-05T06:35:30.217Z,5.53
2023-05-05T06:38:33.473Z,5.00
2023-05-05T06:41:37.966Z,4.07
2023-05-05T06:44:41.384Z,4.77
2023-05-05T06:47:44.854Z,4.53
2023-05-05T06:50:48.299Z,4.33
2023-05-05T06:53:51.460Z,5.53
2023-05-05T06:56:57.568Z,5.63
2023-05-05T07:00:05.626Z,5.67
2023-05-05T07:03:09.114Z,5.93
2023-05-05T07:06:12.365Z,4.83
2023-05-05T07:09:17.067Z,4.43
2023-05-05T07:12:21.938Z,5.27
2023-05-05T07:15:29.339Z,4.10
2023-05-05T07:18:33.010Z,4.87
2023-05-05T07:21:36.535Z,4.30
2023-05-05T07:24:39.826Z,3.90
2023-05-05T07:27:44.380Z,4.30
2023-05-05T07:30:47.573Z,4.67
2023-05-05T07:33:50.788Z,3.90
2023-05-05T07:36:56.280Z,4.33
2023-05-05T07:39:59.493Z,4.20
2023-05-05T07:43:04.726Z,4.07
2023-05-05T07:46:08.080Z,4.67
2023-05-05T07:49:11.426Z,4.07
2023-05-05T07:52:14.701Z,4.00
2023-05-05T07:55:17.961Z,4.43
2023-05-05T07:58:22.525Z,4.07
2023-05-05T08:01:25.686Z,4.47
2023-05-05T08:04:28.890Z,4.53
2023-05-05T08:07:32.154Z,4.47
2023-05-05T08:10:35.458Z,4.00
2023-05-05T08:13:40.106Z,4.30
2023-05-05T08:16:43.314Z,4.77
2023-05-05T08:19:46.564Z,3.57
2023-05-05T08:22:49.873Z,4.23
2023-05-05T08:25:53.302Z,4.03
2023-05-05T08:29:00.749Z,4.53
2023-05-05T08:32:03.930Z,3.87
2023-05-05T08:35:07.879Z,4.00
2023-05-05T08:38:12.500Z,4.23
2023-05-05T08:41:18.969Z,4.17
2023-05-05T08:44:23.929Z,3.77
2023-05-05T08:47:27.301Z,3.77
2023-05-05T08:50:31.611Z,3.80
2023-05-05T08:53:43.082Z,4.37
2023-05-05T08:56:48.295Z,4.23
2023-05-05T08:59:52.947Z,3.72
2023-05-05T09:02:57.801Z,4.05
2023-05-05T09:06:01.193Z,3.70
2023-05-05T09:09:04.387Z,3.60
2023-05-05T09:12:07.771Z,3.17
2023-05-05T09:15:13.210Z,3.93
2023-05-05T09:18:16.342Z,3.05
2023-05-05T09:21:24.623Z,2.85
2023-05-05T09:24:27.856Z,3.13
2023-05-05T09:27:31.061Z,2.83
2023-05-05T09:30:36.517Z,2.95
2023-05-05T09:33:39.773Z,2.70
2023-05-05T09:36:44.090Z,3.53
2023-05-05T09:39:55.239Z,2.65
2023-05-05T09:43:02.914Z,2.75
2023-05-05T09:46:10.476Z,3.35
2023-05-05T09:49:15.706Z,3.08
2023-05-05T09:52:19.394Z,2.92
2023-05-05T09:55:22.677Z,3.42
2023-05-05T09:58:26.762Z,3.40
2023-05-05T10:01:31.307Z,3.00
2023-05-05T10:04:34.666Z,4.00
2023-05-05T10:07:38.293Z,3.60
2023-05-05T10:10:46.512Z,3.78
2023-05-05T10:13:49.768Z,3.35
2023-05-05T10:16:54.823Z,3.60
2023-05-05T10:20:00.075Z,3.65
2023-05-05T10:23:04.515Z,3.65
2023-05-05T10:26:09.118Z,3.53
2023-05-05T10:29:15.405Z,3.70
2023-05-05T10:32:52.037Z,3.33
2023-05-05T10:35:52.744Z,3.45
2023-05-05T10:38:57.716Z,3.20
2023-05-05T10:42:01.766Z,2.85
2023-05-05T10:45:05.103Z,3.72
2023-05-05T10:48:12.692Z,3.78
2023-05-05T10:51:31.441Z,3.10
2023-05-05T10:54:46.968Z,2.50
2023-05-05T10:57:56.190Z,3.08
2023-05-05T11:00:59.376Z,2.60
2023-05-05T11:04:17.805Z,2.80
2023-05-05T11:07:26.935Z,2.92
2023-05-05T11:10:45.246Z,2.60
2023-05-05T11:13:48.412Z,2.90
2023-05-05T11:16:51.618Z,3.45
2023-05-05T11:19:54.829Z,2.50
2023-05-05T11:23:16.714Z,2.40
2023-05-05T11:26:41.596Z,2.58
2023-05-05T11:30:03.333Z,2.67
2023-05-05T11:33:25.566Z,3.20
2023-05-05T11:36:39.691Z,4.25
2023-05-05T11:39:46.613Z,2.80
2023-05-05T11:42:51.168Z,3.25
2023-05-05T11:46:09.260Z,2.92
2023-05-05T11:49:12.448Z,2.58
2023-05-05T11:52:16.013Z,2.65
2023-05-05T11:55:23.330Z,3.15
2023-05-05T11:58:27.815Z,2.25
2023-05-05T12:01:31.022Z,2.30
2023-05-05T12:04:34.343Z,4.25
2023-05-05T12:07:37.593Z,2.42
2023-05-05T12:10:40.978Z,4.10
2023-05-05T12:13:46.400Z,3.72
2023-05-05T12:16:56.189Z,2.40
2023-05-05T12:19:59.386Z,2.33
2023-05-05T12:23:03.879Z,3.50
2023-05-05T12:26:07.625Z,2.20
2023-05-05T12:29:12.961Z,2.80
2023-05-05T12:32:22.826Z,3.97
2023-05-05T12:35:26.145Z,3.45
2023-05-05T12:38:29.325Z,3.95
2023-05-05T12:41:32.492Z,3.55
2023-05-05T12:44:40.468Z,4.30
2023-05-05T12:47:44.673Z,5.60
2023-05-05T12:50:47.832Z,4.80
2023-05-05T12:53:51.468Z,5.50
2023-05-05T12:56:56.213Z,3.22
2023-05-05T13:00:00.753Z,2.90
2023-05-05T13:03:04.727Z,2.45
2023-05-05T13:06:20.636Z,2.80
2023-05-05T13:09:24.617Z,2.53
2023-05-05T13:12:28.165Z,3.58
2023-05-05T13:15:34.975Z,3.03
2023-05-05T13:18:45.095Z,3.20
2023-05-05T13:21:48.268Z,3.10
2023-05-05T13:24:52.671Z,2.80
2023-05-05T13:27:56.150Z,3.08
2023-05-05T13:31:00.705Z,2.58
2023-05-05T13:34:04.518Z,2.90
2023-05-05T13:37:08.594Z,2.30
2023-05-05T13:40:13.337Z,2.55
2023-05-05T13:43:16.529Z,2.30
2023-05-05T13:46:21.083Z,2.33
2023-05-05T13:49:24.236Z,2.20
2023-05-05T13:52:27.586Z,2.38
2023-05-05T13:55:31.689Z,2.05
2023-05-05T13:58:37.085Z,2.28
2023-05-05T14:01:42.248Z,2.20
2023-05-05T14:04:45.570Z,2.63
2023-05-05T14:07:49.032Z,2.30
2023-05-05T14:10:52.345Z,2.75
2023-05-05T14:13:55.597Z,2.38
2023-05-05T14:17:00.192Z,2.00
2023-05-05T14:20:03.547Z,2.03
2023-05-05T14:23:06.752Z,2.90
2023-05-05T14:26:10.400Z,2.22
2023-05-05T14:29:13.559Z,2.30
2023-05-05T14:32:18.117Z,2.53
2023-05-05T14:35:21.646Z,2.67
2023-05-05T14:38:24.852Z,2.92
2023-05-05T14:41:28.512Z,2.08
2023-05-05T14:44:31.648Z,2.35
2023-05-05T14:47:36.315Z,2.53
2023-05-05T14:50:39.891Z,2.38
2023-05-05T14:53:43.114Z,2.45
2023-05-05T14:56:46.269Z,2.75
2023-05-05T14:59:51.886Z,2.67
2023-05-05T15:02:56.467Z,2.90
2023-05-05T15:05:59.696Z,2.90
2023-05-05T15:09:02.889Z,2.50
2023-05-05T15:12:06.456Z,3.00
2023-05-05T15:15:10.350Z,2.70
2023-05-05T15:18:14.995Z,2.85
2023-05-05T15:21:18.408Z,2.60
2023-05-05T15:24:21.745Z,2.75
2023-05-05T15:27:24.906Z,2.80
2023-05-05T15:30:28.133Z,3.00
2023-05-05T15:33:33.444Z,3.00
2023-05-05T15:36:36.589Z,2.50
2023-05-05T15:39:39.979Z,2.40
2023-05-05T15:42:43.126Z,2.50
2023-05-05T15:45:46.247Z,2.28
2023-05-05T15:48:50.906Z,2.60
2023-05-05T15:51:54.082Z,2.75
2023-05-05T15:54:57.236Z,2.97
2023-05-05T15:58:00.389Z,2.40
2023-05-05T16:01:03.586Z,3.28
2023-05-05T16:04:08.239Z,2.70
2023-05-05T16:07:11.570Z,2.88
2023-05-05T16:10:14.858Z,3.13
2023-05-05T16:13:18.352Z,2.92
2023-05-05T16:16:21.700Z,3.10
2023-05-05T16:19:29.895Z,2.88
2023-05-05T16:22:33.069Z,2.53
2023-05-05T16:25:36.204Z,2.42
2023-05-05T16:28:39.381Z,2.90
2023-05-05T16:31:42.833Z,3.65
2023-05-05T16:34:47.398Z,3.33
2023-05-05T16:37:50.651Z,3.42
2023-05-05T16:40:53.835Z,2.90
2023-05-05T16:43:57.017Z,3.78
2023-05-05T16:47:00.400Z,3.60
2023-05-05T16:50:05.197Z,3.15
2023-05-05T16:53:10.049Z,3.20
2023-05-05T16:56:13.533Z,4.32
2023-05-05T16:59:18.281Z,4.38
2023-05-05T17:02:21.546Z,3.80
2023-05-05T17:05:26.777Z,3.70
2023-05-05T17:08:29.954Z,3.58
2023-05-05T17:11:33.109Z,3.20
2023-05-05T17:14:36.280Z,4.15
2023-05-05T17:17:41.536Z,3.42
2023-05-05T17:20:47.308Z,4.13
2023-05-05T17:23:51.002Z,3.92
2023-05-05T17:26:54.182Z,4.95
2023-05-05T17:29:57.390Z,9.45
2023-05-05T17:33:00.537Z,4.45
2023-05-05T17:36:05.134Z,3.60
2023-05-05T17:39:09.602Z,4.60
2023-05-05T17:42:12.753Z,3.88
2023-05-05T17:45:15.967Z,4.43
2023-05-05T17:48:19.151Z,3.97
2023-05-05T17:51:23.680Z,4.22
2023-05-05T17:54:26.828Z,4.28
2023-05-05T17:57:30.217Z,4.78
2023-05-05T18:00:33.805Z,4.47
2023-05-05T18:03:39.272Z,4.63
2023-05-05T18:06:45.074Z,4.38
2023-05-05T18:09:48.210Z,4.50
2023-05-05T18:12:51.349Z,4.97
2023-05-05T18:15:54.536Z,4.85
2023-05-05T18:18:57.723Z,4.55
2023-05-05T18:22:02.214Z,4.85
2023-05-05T18:25:07.871Z,3.83
2023-05-05T18:28:11.369Z,4.25
2023-05-05T18:31:14.588Z,3.40
2023-05-05T18:34:17.772Z,4.20
2023-05-05T18:37:22.292Z,4.75
2023-05-05T18:40:25.569Z,4.45
2023-05-05T18:43:28.754Z,5.25
2023-05-05T18:46:31.948Z,4.82
2023-05-05T18:49:35.194Z,4.65
2023-05-05T18:52:39.689Z,4.80
2023-05-05T18:55:43.359Z,2.92
2023-05-05T18:58:46.526Z,1.52
2023-05-05T19:01:49.694Z,10.30
2023-05-05T19:04:53.090Z,2.87
2023-05-05T19:07:57.617Z,3.20
2023-05-05T19:11:00.780Z,1.70
2023-05-05T19:14:03.951Z,1.80
2023-05-05T19:17:07.143Z,1.97
2023-05-05T19:20:10.829Z,2.13
2023-05-05T19:23:15.360Z,1.93
2023-05-05T19:26:18.561Z,1.80
2023-05-05T19:29:22.181Z,1.53
2023-05-05T19:32:25.490Z,1.97
2023-05-05T19:35:29.450Z,1.97
2023-05-05T19:38:33.964Z,2.00
2023-05-05T19:41:37.175Z,1.33
2023-05-05T19:44:40.438Z,2.00
2023-05-05T19:47:43.641Z,1.30
2023-05-05T19:50:46.860Z,1.60
2023-05-05T19:53:51.645Z,1.47
2023-05-05T19:56:56.638Z,1.50
2023-05-05T20:00:00.376Z,1.50
2023-05-05T20:03:03.636Z,1.57
2023-05-05T20:06:06.975Z,1.53
2023-05-05T20:09:11.676Z,1.60
2023-05-05T20:12:16.817Z,1.30
2023-05-05T20:15:24.059Z,1.53
2023-05-05T20:18:27.918Z,2.47
2023-05-05T20:21:31.231Z,1.37
2023-05-05T20:24:36.186Z,2.07
2023-05-05T20:27:39.636Z,1.90
2023-05-05T20:30:42.851Z,1.63
2023-05-05T20:33:46.020Z,1.40
2023-05-05T20:36:49.292Z,1.27
2023-05-05T20:39:53.819Z,1.80
2023-05-05T20:42:57.002Z,2.60
2023-05-05T20:46:00.148Z,3.53
2023-05-05T20:49:03.309Z,1.23
2023-05-05T20:52:06.619Z,1.07
2023-05-05T20:55:11.458Z,1.40
2023-05-05T20:58:14.633Z,1.53
2023-05-05T21:01:17.929Z,1.10
2023-05-05T21:04:21.220Z,1.10
2023-05-05T21:07:24.662Z,1.50
2023-05-05T21:10:31.914Z,1.17
2023-05-05T21:13:35.065Z,1.57
2023-05-05T21:16:38.249Z,1.90
2023-05-05T21:19:41.536Z,1.50
2023-05-05T21:22:44.684Z,1.60
2023-05-05T21:25:49.216Z,1.37
2023-05-05T21:28:52.493Z,1.40
2023-05-05T21:31:55.678Z,2.17
2023-05-05T21:34:59.203Z,1.70
2023-05-05T21:38:02.655Z,1.93
2023-05-05T21:41:07.146Z,3.60
2023-05-05T21:44:10.295Z,2.40
2023-05-05T21:47:13.477Z,1.93
2023-05-05T21:50:16.628Z,2.33
2023-05-05T21:53:19.770Z,3.30
2023-05-05T21:56:24.246Z,2.00
2023-05-05T21:59:27.386Z,1.23
2023-05-05T22:02:30.670Z,1.93
2023-05-05T22:05:33.843Z,2.70
2023-05-05T22:08:37.012Z,2.23
2023-05-05T22:11:41.506Z,2.40
2023-05-05T22:14:44.671Z,1.70
2023-05-05T22:17:47.872Z,1.40
2023-05-05T22:20:51.207Z,1.30
2023-05-05T22:23:54.356Z,1.63
2023-05-05T22:26:58.867Z,1.60
2023-05-05T22:30:02.196Z,1.50
2023-05-05T22:33:05.527Z,1.50
2023-05-05T22:36:10.071Z,1.80
2023-05-05T22:39:13.215Z,1.43
2023-05-05T22:42:17.689Z,1.73
2023-05-05T22:45:20.838Z,1.43
2023-05-05T22:48:24.014Z,1.13
2023-05-05T22:51:27.790Z,1.80
2023-05-05T22:54:30.981Z,1.60
2023-05-05T22:57:35.786Z,1.53
2023-05-05T23:00:39.168Z,1.53
2023-05-05T23:03:42.430Z,1.40
2023-05-05T23:06:46.019Z,1.70
2023-05-05T23:09:49.577Z,1.57
2023-05-05T23:12:54.069Z,1.60
2023-05-05T23:15:57.209Z,1.90
2023-05-05T23:19:00.363Z,1.57
2023-05-05T23:22:03.901Z,1.63
2023-05-05T23:25:07.657Z,2.17
2023-05-05T23:28:13.075Z,1.60
2023-05-05T23:31:16.226Z,2.10
2023-05-05T23:34:19.419Z,1.20
2023-05-05T23:37:22.933Z,1.53
2023-05-05T23:40:26.106Z,1.70
2023-05-05T23:43:31.545Z,2.17
2023-05-05T23:46:35.271Z,1.70
2023-05-05T23:49:38.559Z,1.87
2023-05-05T23:52:42.123Z,2.20
2023-05-05T23:55:45.275Z,1.83
2023-05-05T23:58:49.742Z,1.43
